createdAt,value
2019-01-24T00:00:15.442Z,47.13
2019-01-24T00:02:43.986Z,46.91
2019-01-24T00:05:10.958Z,46.87
2019-01-24T00:07:37.907Z,46.87
2019-01-24T00:10:05.217Z,46.81
2019-01-24T00:12:35.129Z,46.67
2019-01-24T00:15:02.433Z,48.21
2019-01-24T00:17:29.716Z,48.43
2019-01-24T00:19:57.054Z,48.06
2019-01-24T00:22:25.433Z,48.09
2019-01-24T00:24:52.383Z,48.29
2019-01-24T00:27:19.273Z,47.99
2019-01-24T00:29:46.197Z,48.53
2019-01-24T00:32:13.406Z,47.92
2019-01-24T00:34:40.294Z,47.98
2019-01-24T00:37:10.553Z,47.77
2019-01-24T00:39:37.503Z,48.27
2019-01-24T00:42:04.468Z,47.38
2019-01-24T00:44:31.715Z,47.64
2019-01-24T00:46:58.970Z,47.49
2019-01-24T00:49:26.267Z,47.98
2019-01-24T00:51:53.200Z,48.35
2019-01-24T00:54:20.430Z,48.60
2019-01-24T00:56:47.697Z,48.02
2019-01-24T00:59:15.147Z,46.93
2019-01-24T01:01:42.403Z,46.51
2019-01-24T01:04:09.669Z,46.31
2019-01-24T01:06:37.117Z,46.63
2019-01-24T01:09:04.101Z,46.65
2019-01-24T01:11:32.956Z,46.65
2019-01-24T01:13:59.821Z,46.46
2019-01-24T01:16:26.756Z,46.57
2019-01-24T01:18:53.715Z,46.50
2019-01-24T01:21:21.152Z,47.18
2019-01-24T01:23:48.370Z,47.28
2019-01-24T01:26:15.643Z,47.67
2019-01-24T01:28:42.598Z,47.59
2019-01-24T01:31:09.951Z,47.36
2019-01-24T01:33:36.835Z,47.36
2019-01-24T01:36:03.780Z,47.47
2019-01-24T01:38:31.629Z,47.29
2019-01-24T01:40:58.652Z,47.75
2019-01-24T01:43:25.601Z,48.50
2019-01-24T01:45:53.434Z,48.33
2019-01-24T01:48:20.358Z,48.27
2019-01-24T01:50:47.217Z,49.00
2019-01-24T01:53:14.400Z,48.11
2019-01-24T01:55:41.337Z,46.99
2019-01-24T01:58:08.300Z,46.55
2019-01-24T02:00:35.762Z,46.70
2019-01-24T02:03:02.706Z,46.57
2019-01-24T02:05:29.667Z,47.13
2019-01-24T02:07:57.106Z,47.28
2019-01-24T02:10:24.565Z,46.05
2019-01-24T02:12:51.817Z,46.45
2019-01-24T02:15:18.778Z,46.39
2019-01-24T02:17:45.741Z,46.66
2019-01-24T02:20:12.945Z,47.28
2019-01-24T02:22:39.854Z,48.13
2019-01-24T02:25:06.821Z,49.32
2019-01-24T02:27:33.780Z,48.14
2019-01-24T02:30:01.040Z,47.74
2019-01-24T02:32:28.006Z,47.57
2019-01-24T02:34:54.947Z,48.92
2019-01-24T02:37:21.856Z,49.52
2019-01-24T02:39:49.144Z,47.93
2019-01-24T02:42:16.498Z,47.37
2019-01-24T02:44:43.510Z,47.09
2019-01-24T02:47:10.796Z,48.35
2019-01-24T02:49:37.752Z,47.93
2019-01-24T02:52:05.934Z,47.61
2019-01-24T02:54:32.882Z,48.36
2019-01-24T02:57:00.220Z,48.38
2019-01-24T02:59:27.086Z,48.12
2019-01-24T03:01:54.312Z,48.25
2019-01-24T03:04:21.269Z,47.97
2019-01-24T03:06:48.213Z,47.69
2019-01-24T03:09:15.531Z,48.90
2019-01-24T03:11:42.712Z,48.69
2019-01-24T03:14:11.994Z,48.32
2019-01-24T03:16:39.024Z,49.05
2019-01-24T03:19:05.965Z,49.16
2019-01-24T03:21:32.892Z,48.29
2019-01-24T03:24:00.102Z,48.14
2019-01-24T03:26:27.352Z,48.58
2019-01-24T03:28:54.659Z,47.88
2019-01-24T03:31:21.638Z,48.91
2019-01-24T03:33:49.027Z,49.01
2019-01-24T03:36:15.962Z,48.35
2019-01-24T03:38:42.826Z,48.56
2019-01-24T03:41:10.165Z,48.07
2019-01-24T03:43:38.219Z,48.58
2019-01-24T03:46:05.154Z,48.97
2019-01-24T03:48:32.334Z,48.47
2019-01-24T03:50:59.197Z,47.97
2019-01-24T03:53:26.119Z,47.80
2019-01-24T03:55:53.457Z,47.85
2019-01-24T03:58:20.500Z,48.25
2019-01-24T04:00:47.495Z,49.10
2019-01-24T04:03:14.797Z,48.66
2019-01-24T04:05:41.747Z,47.74
2019-01-24T04:08:08.653Z,48.60
2019-01-24T04:10:35.600Z,49.28
2019-01-24T04:13:02.767Z,49.24
2019-01-24T04:15:29.760Z,49.93
2019-01-24T04:17:56.672Z,49.21
2019-01-24T04:20:23.565Z,49.77
2019-01-24T04:22:50.806Z,49.63
2019-01-24T04:25:17.673Z,49.05
2019-01-24T04:27:44.542Z,48.68
2019-01-24T04:30:11.675Z,48.15
2019-01-24T04:32:38.807Z,48.59
2019-01-24T04:35:07.716Z,49.25
2019-01-24T04:37:34.631Z,48.30
2019-01-24T04:40:01.607Z,47.53
2019-01-24T04:42:28.838Z,47.07
2019-01-24T04:44:55.795Z,47.91
2019-01-24T04:47:23.124Z,48.25
2019-01-24T04:49:50.111Z,48.97
2019-01-24T04:52:17.419Z,49.99
2019-01-24T04:54:44.827Z,48.83
2019-01-24T04:57:11.830Z,47.28
2019-01-24T04:59:39.285Z,46.97
2019-01-24T05:02:06.268Z,47.19
2019-01-24T05:04:33.148Z,47.48
2019-01-24T05:07:01.183Z,47.11
2019-01-24T05:09:28.194Z,47.18
2019-01-24T05:11:55.142Z,47.37
2019-01-24T05:14:22.108Z,46.96
2019-01-24T05:16:48.987Z,46.88
2019-01-24T05:19:17.291Z,47.09
2019-01-24T05:21:44.231Z,47.02
2019-01-24T05:24:11.506Z,47.25
2019-01-24T05:26:38.941Z,46.83
2019-01-24T05:29:06.229Z,47.18
2019-01-24T05:31:33.555Z,47.49
2019-01-24T05:34:00.898Z,47.13
2019-01-24T05:36:27.788Z,47.68
2019-01-24T05:38:54.792Z,47.58
2019-01-24T05:41:21.796Z,47.94
2019-01-24T05:43:49.735Z,48.79
2019-01-24T05:46:16.597Z,48.60
2019-01-24T05:48:43.470Z,48.51
2019-01-24T05:51:10.417Z,48.35
2019-01-24T05:53:37.317Z,48.39
2019-01-24T05:56:04.325Z,48.71
2019-01-24T05:58:31.578Z,48.72
2019-01-24T06:01:00.063Z,47.76
2019-01-24T06:03:27.347Z,48.24
2019-01-24T06:05:54.473Z,47.73
2019-01-24T06:08:21.725Z,48.27
2019-01-24T06:10:48.620Z,48.60
2019-01-24T06:13:15.821Z,49.21
2019-01-24T06:15:42.720Z,48.54
2019-01-24T06:18:10.052Z,48.29
2019-01-24T06:20:37.412Z,48.13
2019-01-24T06:23:04.322Z,47.99
2019-01-24T06:25:31.566Z,48.27
2019-01-24T06:27:58.831Z,48.13
2019-01-24T06:30:26.088Z,47.72
2019-01-24T06:32:53.355Z,46.93
2019-01-24T06:35:20.699Z,46.98
2019-01-24T06:37:47.639Z,47.13
2019-01-24T06:40:14.918Z,47.47
2019-01-24T06:42:41.860Z,47.85
2019-01-24T06:45:08.832Z,47.98
2019-01-24T06:47:36.055Z,48.04
2019-01-24T06:50:03.420Z,47.75
2019-01-24T06:52:30.774Z,48.09
2019-01-24T06:54:57.739Z,48.17
2019-01-24T06:57:25.377Z,48.32
2019-01-24T06:59:52.377Z,48.39
2019-01-24T07:02:19.330Z,48.16
2019-01-24T07:04:46.725Z,48.92
2019-01-24T07:07:13.659Z,48.69
2019-01-24T07:09:41.125Z,48.24
2019-01-24T07:12:08.172Z,48.10
2019-01-24T07:14:36.057Z,48.30
2019-01-24T07:17:03.005Z,48.25
2019-01-24T07:19:30.233Z,48.11
2019-01-24T07:21:57.700Z,47.69
2019-01-24T07:24:24.663Z,48.38
2019-01-24T07:26:52.000Z,48.28
2019-01-24T07:29:19.085Z,48.31
2019-01-24T07:31:46.086Z,47.75
2019-01-24T07:34:13.028Z,48.44
2019-01-24T07:36:40.293Z,48.94
2019-01-24T07:39:07.256Z,48.55
2019-01-24T07:41:34.160Z,48.39
2019-01-24T07:44:01.309Z,47.57
2019-01-24T07:46:29.617Z,46.31
2019-01-24T07:48:56.954Z,46.10
2019-01-24T07:51:24.315Z,46.08
2019-01-24T07:53:52.517Z,45.91
2019-01-24T07:56:19.499Z,46.29
2019-01-24T07:58:46.910Z,46.56
2019-01-24T08:01:13.869Z,46.76
2019-01-24T08:03:41.201Z,46.57
2019-01-24T08:06:09.249Z,46.36
2019-01-24T08:08:36.878Z,46.54
2019-01-24T08:11:04.189Z,46.41
2019-01-24T08:13:31.449Z,46.49
2019-01-24T08:15:58.411Z,46.70
2019-01-24T08:18:25.626Z,46.65
2019-01-24T08:20:54.254Z,46.81
2019-01-24T08:23:23.104Z,46.56
2019-01-24T08:25:51.881Z,46.97
2019-01-24T08:28:18.760Z,47.18
2019-01-24T08:30:45.794Z,47.30
2019-01-24T08:33:12.687Z,46.38
2019-01-24T08:35:39.568Z,46.39
2019-01-24T08:38:06.532Z,45.87
2019-01-24T08:40:33.473Z,45.89
2019-01-24T08:43:00.663Z,46.39
2019-01-24T08:45:27.522Z,46.58
2019-01-24T08:47:54.419Z,46.38
2019-01-24T08:50:21.788Z,46.03
2019-01-24T08:52:49.006Z,46.36
2019-01-24T08:55:16.247Z,46.52
2019-01-24T08:57:43.222Z,45.63
2019-01-24T09:00:10.102Z,45.65
2019-01-24T09:02:38.073Z,46.49
2019-01-24T09:05:05.038Z,46.11
2019-01-24T09:07:32.420Z,46.13
2019-01-24T09:09:59.291Z,48.12
2019-01-24T09:12:30.304Z,46.75
2019-01-24T09:14:54.832Z,47.28
2019-01-24T09:17:22.174Z,47.02
2019-01-24T09:19:49.122Z,46.74
2019-01-24T09:22:16.329Z,46.63
2019-01-24T09:24:43.196Z,46.45
2019-01-24T09:27:10.162Z,45.48
2019-01-24T09:29:37.044Z,45.43
2019-01-24T09:32:04.348Z,45.07
2019-01-24T09:34:31.305Z,45.18
2019-01-24T09:36:59.001Z,44.96
2019-01-24T09:39:25.953Z,44.44
2019-01-24T09:41:52.903Z,44.24
2019-01-24T09:44:19.794Z,43.89
2019-01-24T09:46:46.773Z,44.82
2019-01-24T09:49:13.723Z,45.16
2019-01-24T09:51:40.922Z,44.47
2019-01-24T09:54:07.872Z,44.90
2019-01-24T09:56:34.839Z,44.34
2019-01-24T09:59:02.163Z,44.94
2019-01-24T10:01:29.026Z,44.39
2019-01-24T10:03:56.249Z,44.56
2019-01-24T10:06:23.433Z,44.64
2019-01-24T10:08:50.771Z,45.51
2019-01-24T10:11:23.463Z,44.64
2019-01-24T10:13:46.274Z,45.52
2019-01-24T10:16:13.152Z,45.27
2019-01-24T10:18:40.393Z,44.99
2019-01-24T10:21:08.090Z,45.10
2019-01-24T10:23:36.118Z,44.66
2019-01-24T10:26:03.082Z,45.01
2019-01-24T10:28:30.064Z,44.19
2019-01-24T10:30:56.952Z,43.83
2019-01-24T10:33:23.980Z,43.49
2019-01-24T10:35:51.336Z,42.64
2019-01-24T10:38:18.317Z,42.20
2019-01-24T10:40:45.215Z,42.70
2019-01-24T10:43:12.097Z,42.41
2019-01-24T10:45:38.984Z,42.67
2019-01-24T10:48:06.166Z,43.26
2019-01-24T10:50:33.123Z,42.59
2019-01-24T10:53:00.354Z,43.46
2019-01-24T10:55:27.289Z,44.43
2019-01-24T10:57:54.173Z,44.65
2019-01-24T11:00:21.148Z,43.27
2019-01-24T11:02:48.102Z,42.65
2019-01-24T11:05:15.058Z,42.18
2019-01-24T11:07:41.986Z,42.14
2019-01-24T11:10:10.217Z,42.60
2019-01-24T11:12:37.340Z,42.47
2019-01-24T11:15:04.321Z,41.90
2019-01-24T11:17:31.253Z,42.81
2019-01-24T11:19:58.459Z,42.31
2019-01-24T11:22:25.432Z,42.92
2019-01-24T11:24:52.641Z,42.33
2019-01-24T11:27:19.865Z,41.71
2019-01-24T11:29:47.344Z,43.01
2019-01-24T11:32:14.334Z,41.99
2019-01-24T11:34:41.454Z,42.63
2019-01-24T11:37:08.646Z,42.36
2019-01-24T11:39:35.599Z,41.53
2019-01-24T11:42:02.577Z,42.05
2019-01-24T11:44:29.826Z,42.03
2019-01-24T11:46:56.751Z,42.65
2019-01-24T11:49:24.035Z,42.61
2019-01-24T11:51:50.981Z,42.13
2019-01-24T11:54:18.006Z,41.95
2019-01-24T11:56:44.962Z,41.37
2019-01-24T11:59:12.100Z,41.65
2019-01-24T12:01:39.092Z,41.55
2019-01-24T12:04:06.141Z,41.43
2019-01-24T12:06:33.095Z,41.56
2019-01-24T12:09:02.944Z,41.51
2019-01-24T12:11:30.824Z,40.68
2019-01-24T12:13:57.706Z,40.21
2019-01-24T12:16:26.085Z,40.22
2019-01-24T12:18:53.040Z,40.10
2019-01-24T12:21:19.933Z,39.96
2019-01-24T12:23:46.862Z,39.74
2019-01-24T12:26:13.794Z,40.13
2019-01-24T12:28:40.725Z,40.32
2019-01-24T12:31:07.617Z,40.99
2019-01-24T12:33:34.937Z,40.29
2019-01-24T12:36:02.251Z,40.50
2019-01-24T12:38:29.189Z,40.65
2019-01-24T12:40:56.084Z,40.48
2019-01-24T12:43:23.640Z,41.19
2019-01-24T12:45:51.069Z,41.90
2019-01-24T12:48:19.634Z,40.68
2019-01-24T12:50:46.596Z,40.51
2019-01-24T12:53:13.864Z,40.71
2019-01-24T12:55:40.844Z,40.76
2019-01-24T12:58:08.070Z,42.12
2019-01-24T13:00:35.094Z,41.43
2019-01-24T13:03:02.135Z,41.22
2019-01-24T13:05:29.099Z,41.16
2019-01-24T13:07:55.963Z,40.36
2019-01-24T13:10:23.164Z,40.47
2019-01-24T13:12:50.347Z,40.63
2019-01-24T13:15:17.273Z,40.91
2019-01-24T13:17:44.553Z,41.36
2019-01-24T13:20:11.511Z,41.32
2019-01-24T13:22:38.843Z,41.05
2019-01-24T13:25:05.742Z,40.35
2019-01-24T13:27:32.710Z,40.69
2019-01-24T13:29:59.943Z,40.61
2019-01-24T13:32:26.904Z,40.57
2019-01-24T13:34:53.780Z,40.06
2019-01-24T13:37:25.968Z,40.10
2019-01-24T13:39:53.375Z,39.82
2019-01-24T13:42:20.292Z,39.75
2019-01-24T13:44:47.776Z,40.14
2019-01-24T13:47:14.814Z,39.82
2019-01-24T13:49:41.747Z,40.04
2019-01-24T13:52:08.917Z,40.14
2019-01-24T13:54:36.191Z,40.36
2019-01-24T13:57:03.565Z,40.31
2019-01-24T13:59:30.921Z,40.14
2019-01-24T14:01:58.275Z,40.61
2019-01-24T14:04:25.226Z,40.57
2019-01-24T14:06:52.264Z,40.93
2019-01-24T14:09:19.440Z,40.78
2019-01-24T14:11:46.535Z,40.91
2019-01-24T14:14:13.843Z,41.13
2019-01-24T14:16:41.662Z,41.12
2019-01-24T14:19:08.642Z,41.40
2019-01-24T14:21:35.549Z,42.17
2019-01-24T14:24:02.731Z,42.21
2019-01-24T14:26:30.085Z,41.43
2019-01-24T14:28:56.990Z,40.71
2019-01-24T14:31:24.266Z,41.29
2019-01-24T14:33:51.500Z,40.97
2019-01-24T14:36:25.124Z,41.23
2019-01-24T14:38:47.710Z,41.26
2019-01-24T14:41:15.060Z,41.80
2019-01-24T14:43:42.011Z,41.67
2019-01-24T14:46:08.887Z,41.87
2019-01-24T14:48:35.811Z,41.86
2019-01-24T14:51:03.139Z,41.91
2019-01-24T14:53:30.365Z,41.32
2019-01-24T14:55:57.378Z,41.86
2019-01-24T14:58:24.704Z,41.16
2019-01-24T15:00:51.737Z,41.44
2019-01-24T15:03:19.779Z,40.61
2019-01-24T15:05:47.154Z,40.87
2019-01-24T15:08:14.900Z,40.87
2019-01-24T15:10:42.358Z,41.00
2019-01-24T15:13:09.715Z,41.30
2019-01-24T15:15:36.997Z,41.11
2019-01-24T15:18:03.956Z,41.90
2019-01-24T15:20:30.871Z,42.50
2019-01-24T15:22:57.927Z,42.88
2019-01-24T15:25:27.897Z,42.58
2019-01-24T15:27:54.854Z,42.32
2019-01-24T15:30:22.063Z,41.54
2019-01-24T15:32:52.472Z,42.00
2019-01-24T15:35:19.722Z,41.76
2019-01-24T15:37:46.751Z,41.84
2019-01-24T15:40:14.645Z,41.88
2019-01-24T15:42:41.679Z,42.35
2019-01-24T15:45:10.915Z,42.37
2019-01-24T15:47:38.450Z,43.31
2019-01-24T15:50:05.706Z,42.87
2019-01-24T15:52:34.103Z,43.21
2019-01-24T15:55:01.218Z,43.74
2019-01-24T15:57:28.487Z,43.34
2019-01-24T15:59:55.698Z,43.47
2019-01-24T16:02:23.544Z,43.58
2019-01-24T16:04:50.761Z,43.06
2019-01-24T16:07:18.715Z,42.91
2019-01-24T16:09:51.117Z,43.01
2019-01-24T16:12:17.433Z,43.34
2019-01-24T16:14:44.709Z,43.18
2019-01-24T16:17:14.692Z,42.84
2019-01-24T16:19:41.670Z,43.01
2019-01-24T16:22:08.633Z,42.91
2019-01-24T16:24:35.600Z,42.85
2019-01-24T16:27:02.779Z,43.18
2019-01-24T16:29:31.683Z,42.95
2019-01-24T16:32:01.576Z,43.32
2019-01-24T16:34:29.564Z,43.83
2019-01-24T16:36:56.485Z,43.55
2019-01-24T16:39:23.904Z,42.86
2019-01-24T16:41:51.088Z,42.56
2019-01-24T16:44:18.360Z,42.59
2019-01-24T16:46:45.385Z,43.45
2019-01-24T16:49:12.566Z,43.07
2019-01-24T16:51:42.663Z,43.30
2019-01-24T16:54:10.059Z,42.46
2019-01-24T16:56:44.867Z,41.98
2019-01-24T16:59:30.200Z,42.35
2019-01-24T17:04:25.592Z,43.33
2019-01-24T17:06:52.637Z,42.89
2019-01-24T17:09:19.672Z,42.50
2019-01-24T17:11:46.698Z,42.47
2019-01-24T17:14:13.627Z,42.43
2019-01-24T17:16:41.971Z,42.38
2019-01-24T17:19:09.413Z,42.53
2019-01-24T17:21:47.112Z,42.44
2019-01-24T17:24:16.732Z,43.82
2019-01-24T17:26:45.698Z,43.19
2019-01-24T17:29:12.706Z,42.61
2019-01-24T17:31:40.060Z,42.83
2019-01-24T17:34:07.085Z,42.53
2019-01-24T17:36:34.434Z,42.35
2019-01-24T17:39:01.460Z,42.29
2019-01-24T17:41:30.184Z,42.69
2019-01-24T17:43:57.262Z,42.53
2019-01-24T17:46:25.393Z,42.55
2019-01-24T17:48:53.735Z,42.60
2019-01-24T17:51:21.367Z,43.18
2019-01-24T17:53:48.944Z,42.48
2019-01-24T17:56:19.244Z,42.18
2019-01-24T17:58:46.696Z,42.69
2019-01-24T18:01:13.626Z,42.41
2019-01-24T18:03:48.304Z,42.85
2019-01-24T18:06:18.438Z,42.91
2019-01-24T18:08:47.121Z,43.74
2019-01-24T18:11:14.267Z,43.20
2019-01-24T18:13:41.350Z,43.52
2019-01-24T18:16:08.360Z,42.94
2019-01-24T18:18:35.888Z,42.60
2019-01-24T18:21:03.337Z,42.81
2019-01-24T18:23:30.294Z,43.66
2019-01-24T18:25:57.281Z,43.35
2019-01-24T18:28:24.605Z,42.50
2019-01-24T18:30:51.525Z,42.26
2019-01-24T18:33:21.251Z,42.24
2019-01-24T18:35:47.626Z,43.46
2019-01-24T18:38:14.978Z,43.74
2019-01-24T18:40:42.685Z,44.31
2019-01-24T18:43:09.824Z,44.24
2019-01-24T18:45:38.550Z,43.29
2019-01-24T18:48:08.136Z,43.36
2019-01-24T18:50:35.641Z,43.63
2019-01-24T18:53:03.167Z,43.58
2019-01-24T18:55:32.440Z,43.76
2019-01-24T18:58:00.661Z,42.97
2019-01-24T19:00:29.050Z,43.19
2019-01-24T19:02:58.504Z,43.72
2019-01-24T19:05:25.542Z,43.50
2019-01-24T19:07:53.635Z,43.38
2019-01-24T19:10:20.980Z,43.04
2019-01-24T19:12:49.987Z,42.95
2019-01-24T19:15:17.583Z,42.56
2019-01-24T19:17:44.635Z,42.72
2019-01-24T19:20:13.024Z,42.76
2019-01-24T19:22:52.308Z,42.98
2019-01-24T19:25:14.762Z,42.98
2019-01-24T19:27:41.838Z,43.59
2019-01-24T19:30:09.100Z,43.13
2019-01-24T19:32:36.428Z,43.06
2019-01-24T19:35:03.394Z,43.13
2019-01-24T19:37:30.876Z,43.57
2019-01-24T19:39:59.382Z,43.85
2019-01-24T19:42:26.421Z,44.43
2019-01-24T19:44:56.418Z,44.47
2019-01-24T19:47:24.444Z,44.55
2019-01-24T19:49:51.389Z,44.07
2019-01-24T19:52:24.284Z,43.72
2019-01-24T19:54:48.774Z,43.40
2019-01-24T19:57:21.708Z,44.06
2019-01-24T19:59:49.058Z,43.83
2019-01-24T20:02:19.290Z,43.38
2019-01-24T20:04:46.298Z,43.47
2019-01-24T20:07:13.255Z,43.59
2019-01-24T20:09:40.267Z,43.99
2019-01-24T20:12:10.773Z,43.36
2019-01-24T20:14:40.607Z,44.25
2019-01-24T20:17:07.879Z,44.12
2019-01-24T20:19:34.810Z,43.67
2019-01-24T20:22:02.257Z,43.85
2019-01-24T20:24:31.738Z,43.77
2019-01-24T20:27:00.420Z,43.79
2019-01-24T20:29:27.527Z,43.46
2019-01-24T20:31:54.541Z,43.32
2019-01-24T20:34:25.177Z,43.85
2019-01-24T20:36:54.241Z,43.72
2019-01-24T20:39:21.079Z,44.03
2019-01-24T20:41:48.486Z,43.97
2019-01-24T20:44:15.739Z,44.11
2019-01-24T20:46:43.110Z,44.24
2019-01-24T20:49:10.877Z,44.31
2019-01-24T20:51:38.166Z,43.91
2019-01-24T20:54:05.147Z,43.56
2019-01-24T20:56:32.271Z,44.05
2019-01-24T20:58:59.232Z,44.17
2019-01-24T21:01:27.851Z,43.63
2019-01-24T21:03:58.293Z,43.72
2019-01-24T21:06:25.239Z,43.99
2019-01-24T21:08:59.709Z,43.88
2019-01-24T21:11:34.169Z,43.73
2019-01-24T21:14:01.815Z,43.17
2019-01-24T21:16:28.761Z,43.56
2019-01-24T21:18:55.799Z,44.08
2019-01-24T21:21:24.525Z,43.86
2019-01-24T21:23:51.508Z,43.67
2019-01-24T21:26:18.777Z,43.92
2019-01-24T21:28:46.342Z,43.55
2019-01-24T21:31:14.931Z,43.49
2019-01-24T21:33:41.968Z,43.33
2019-01-24T21:36:09.056Z,43.61
2019-01-24T21:38:36.058Z,43.85
2019-01-24T21:41:03.321Z,43.95
2019-01-24T21:43:30.363Z,43.92
2019-01-24T21:45:57.705Z,44.32
2019-01-24T21:48:24.713Z,44.42
2019-01-24T21:50:52.163Z,44.67
2019-01-24T21:53:20.786Z,44.50
2019-01-24T21:55:48.030Z,45.18
2019-01-24T21:58:15.016Z,45.20
2019-01-24T22:00:42.223Z,45.03
2019-01-24T22:03:09.449Z,45.00
2019-01-24T22:05:36.376Z,44.64
2019-01-24T22:08:03.611Z,44.64
2019-01-24T22:10:37.640Z,44.55
2019-01-24T22:13:04.581Z,44.54
2019-01-24T22:15:31.677Z,44.83
2019-01-24T22:18:01.707Z,45.08
2019-01-24T22:20:27.707Z,44.47
2019-01-24T22:22:54.754Z,44.94
2019-01-24T22:25:23.971Z,45.09
2019-01-24T22:27:52.639Z,45.14
2019-01-24T22:30:19.986Z,45.75
2019-01-24T22:32:47.209Z,45.53
2019-01-24T22:35:14.163Z,45.60
2019-01-24T22:37:41.146Z,45.10
2019-01-24T22:40:08.469Z,45.46
2019-01-24T22:42:35.458Z,45.43
2019-01-24T22:45:02.447Z,45.66
2019-01-24T22:47:29.726Z,45.65
2019-01-24T22:49:56.927Z,45.64
2019-01-24T22:52:24.226Z,45.65
2019-01-24T22:54:51.206Z,45.65
2019-01-24T22:57:18.057Z,46.42
2019-01-24T22:59:45.577Z,46.27
2019-01-24T23:02:12.841Z,45.85
2019-01-24T23:04:40.187Z,45.65
2019-01-24T23:07:07.452Z,45.50
2019-01-24T23:09:34.437Z,45.32
2019-01-24T23:12:01.506Z,45.84
2019-01-24T23:14:28.871Z,45.91
2019-01-24T23:16:55.798Z,45.74
2019-01-24T23:19:22.759Z,45.55
2019-01-24T23:21:49.904Z,45.60
2019-01-24T23:24:16.887Z,45.66
2019-01-24T23:26:43.866Z,45.43
2019-01-24T23:29:11.904Z,45.51
2019-01-24T23:31:39.045Z,45.56
2019-01-24T23:34:06.302Z,45.54
2019-01-24T23:36:33.461Z,45.92
2019-01-24T23:39:00.712Z,46.00
2019-01-24T23:41:29.296Z,46.02
2019-01-24T23:43:56.219Z,45.96
2019-01-24T23:46:23.194Z,45.88
2019-01-24T23:48:50.128Z,45.88
2019-01-24T23:51:17.014Z,46.24
2019-01-24T23:53:43.882Z,46.28
2019-01-24T23:56:12.124Z,46.04
2019-01-24T23:58:39.134Z,46.09
